createdAt,value
2023-05-23T00:00:51.997Z,11.08
2023-05-23T00:01:58.521Z,11.07
2023-05-23T00:03:22.846Z,11.06
2023-05-23T00:04:44.392Z,11.06
2023-05-23T00:06:08.113Z,11.04
2023-05-23T00:07:29.387Z,11.04
2023-05-23T00:08:50.571Z,11.03
2023-05-23T00:10:12.252Z,11.01
2023-05-23T00:11:32.582Z,11.01
2023-05-23T00:12:53.806Z,11.01
2023-05-23T00:14:15.679Z,10.97
2023-05-23T00:15:38.880Z,10.95
2023-05-23T00:17:00.303Z,10.92
2023-05-23T00:18:21.835Z,10.90
2023-05-23T00:19:45.529Z,10.87
2023-05-23T00:21:06.184Z,10.85
2023-05-23T00:22:27.707Z,10.83
2023-05-23T00:23:50.458Z,10.81
2023-05-23T00:25:11.646Z,10.80
2023-05-23T00:26:13.519Z,10.78
2023-05-23T00:27:21.514Z,10.80
2023-05-23T00:28:23.427Z,10.81
2023-05-23T00:29:26.253Z,10.83
2023-05-23T00:30:28.694Z,10.83
2023-05-23T00:31:32.925Z,10.85
2023-05-23T00:32:35.611Z,10.87
2023-05-23T00:33:38.508Z,10.87
2023-05-23T00:34:40.387Z,10.89
2023-05-23T00:35:43.722Z,10.88
2023-05-23T00:36:47.746Z,10.88
2023-05-23T00:37:51.813Z,10.88
2023-05-23T00:38:54.251Z,10.86
2023-05-23T00:39:57.012Z,10.82
2023-05-23T00:40:58.819Z,10.80
2023-05-23T00:42:05.545Z,10.77
2023-05-23T00:43:08.288Z,10.75
2023-05-23T00:44:11.287Z,10.73
2023-05-23T00:45:16.962Z,10.72
2023-05-23T00:46:19.807Z,10.71
2023-05-23T00:47:23.242Z,10.71
2023-05-23T00:48:26.859Z,10.71
2023-05-23T00:49:28.886Z,10.71
2023-05-23T00:50:50.482Z,10.68
2023-05-23T00:52:11.285Z,10.64
2023-05-23T00:53:32.661Z,10.62
2023-05-23T00:54:53.107Z,10.60
2023-05-23T00:56:14.742Z,10.57
2023-05-23T00:57:40.347Z,10.54
2023-05-23T00:59:02.103Z,10.55
2023-05-23T01:00:24.495Z,10.54
2023-05-23T01:01:47.646Z,10.54
2023-05-23T01:03:18.469Z,10.58
2023-05-23T01:04:39.420Z,10.61
2023-05-23T01:06:00.694Z,10.65
2023-05-23T01:07:22.325Z,10.66
2023-05-23T01:08:25.166Z,10.69
2023-05-23T01:09:28.833Z,10.71
2023-05-23T01:10:32.391Z,10.69
2023-05-23T01:11:39.057Z,10.70
2023-05-23T01:12:47.599Z,10.72
2023-05-23T01:13:56.389Z,10.73
2023-05-23T01:15:03.664Z,10.71
2023-05-23T01:16:08.332Z,10.69
2023-05-23T01:17:16.057Z,10.68
2023-05-23T01:18:24.964Z,10.66
2023-05-23T01:19:53.735Z,10.66
2023-05-23T01:20:57.265Z,10.64
2023-05-23T01:22:02.098Z,10.60
2023-05-23T01:23:14.234Z,10.58
2023-05-23T01:24:36.275Z,10.53
2023-05-23T01:25:59.651Z,10.47
2023-05-23T01:27:10.467Z,10.36
2023-05-23T01:28:37.073Z,10.26
2023-05-23T01:29:59.687Z,10.14
2023-05-23T01:31:20.487Z,10.05
2023-05-23T01:32:42.876Z,9.94
2023-05-23T01:34:04.638Z,9.81
2023-05-23T01:35:27.304Z,9.66
2023-05-23T01:36:50.348Z,9.50
2023-05-23T01:38:11.940Z,9.34
2023-05-23T01:39:33.957Z,9.24
2023-05-23T01:40:54.513Z,9.14
2023-05-23T01:42:15.899Z,9.06
2023-05-23T01:43:29.747Z,8.99
2023-05-23T01:44:34.138Z,8.90
2023-05-23T01:45:36.329Z,8.84
2023-05-23T01:46:40.189Z,8.78
2023-05-23T01:47:42.702Z,8.73
2023-05-23T01:48:45.990Z,8.68
2023-05-23T01:49:48.012Z,8.64
2023-05-23T01:50:51.833Z,8.57
2023-05-23T01:51:57.558Z,8.53
2023-05-23T01:53:01.614Z,8.50
2023-05-23T01:54:03.753Z,8.46
2023-05-23T01:55:12.695Z,8.43
2023-05-23T01:56:14.917Z,8.41
2023-05-23T01:57:18.008Z,8.39
2023-05-23T01:58:22.733Z,8.34
2023-05-23T01:59:25.632Z,8.30
2023-05-23T02:00:31.827Z,8.27
2023-05-23T02:01:38.686Z,8.23
2023-05-23T02:02:40.717Z,8.19
2023-05-23T02:03:43.907Z,8.18
2023-05-23T02:04:45.763Z,8.13
2023-05-23T02:05:50.815Z,8.09
2023-05-23T02:06:53.526Z,8.02
2023-05-23T02:07:57.014Z,8.00
2023-05-23T02:09:17.471Z,7.95
2023-05-23T02:10:40.127Z,7.88
2023-05-23T02:12:01.759Z,7.82
2023-05-23T02:13:23.344Z,7.74
2023-05-23T02:14:43.846Z,7.70
2023-05-23T02:16:07.600Z,7.67
2023-05-23T02:17:27.991Z,7.62
2023-05-23T02:18:52.805Z,7.57
2023-05-23T02:20:14.722Z,7.53
2023-05-23T02:21:35.845Z,7.51
2023-05-23T02:22:58.318Z,7.48
2023-05-23T02:24:20.879Z,7.46
2023-05-23T02:25:43.462Z,7.43
2023-05-23T02:27:04.248Z,7.41
2023-05-23T02:28:25.980Z,7.39
2023-05-23T02:29:46.543Z,7.35
2023-05-23T02:31:09.464Z,7.32
2023-05-23T02:32:30.223Z,7.29
2023-05-23T02:33:51.470Z,7.29
2023-05-23T02:35:12.600Z,7.26
2023-05-23T02:36:34.163Z,7.22
2023-05-23T02:37:55.543Z,7.19
2023-05-23T02:39:15.973Z,7.16
2023-05-23T02:40:37.315Z,7.16
2023-05-23T02:41:58.056Z,7.14
2023-05-23T02:43:20.346Z,7.13
2023-05-23T02:44:40.882Z,7.13
2023-05-23T02:46:02.464Z,7.10
2023-05-23T02:47:05.953Z,7.10
2023-05-23T02:48:09.797Z,7.08
2023-05-23T02:49:11.909Z,7.09
2023-05-23T02:50:14.787Z,7.11
2023-05-23T02:51:18.229Z,7.10
2023-05-23T02:52:21.117Z,7.10
2023-05-23T02:53:22.940Z,7.09
2023-05-23T02:54:26.111Z,7.08
2023-05-23T02:55:28.907Z,7.07
2023-05-23T02:56:31.839Z,7.06
2023-05-23T02:57:33.639Z,7.05
2023-05-23T02:58:37.000Z,7.04
2023-05-23T02:59:38.882Z,7.06
2023-05-23T03:00:43.988Z,7.07
2023-05-23T03:01:45.960Z,7.06
2023-05-23T03:02:50.368Z,7.10
2023-05-23T03:03:52.251Z,7.12
2023-05-23T03:04:56.127Z,7.15
2023-05-23T03:05:59.150Z,7.16
2023-05-23T03:07:02.448Z,7.19
2023-05-23T03:08:06.806Z,7.20
2023-05-23T03:09:09.730Z,7.17
2023-05-23T03:10:12.602Z,7.13
2023-05-23T03:11:14.742Z,7.09
2023-05-23T03:12:20.099Z,7.10
2023-05-23T03:13:22.323Z,7.10
2023-05-23T03:14:25.584Z,7.12
2023-05-23T03:15:27.476Z,7.13
2023-05-23T03:16:30.745Z,7.11
2023-05-23T03:17:32.703Z,7.11
2023-05-23T03:18:36.877Z,7.11
2023-05-23T03:19:38.808Z,7.11
2023-05-23T03:20:42.301Z,7.13
2023-05-23T03:21:44.372Z,7.15
2023-05-23T03:22:47.241Z,7.18
2023-05-23T03:23:49.316Z,7.23
2023-05-23T03:24:52.124Z,7.26
2023-05-23T03:25:53.986Z,7.30
2023-05-23T03:26:57.124Z,7.33
2023-05-23T03:27:59.033Z,7.39
2023-05-23T03:29:01.885Z,7.42
2023-05-23T03:30:04.014Z,7.47
2023-05-23T03:31:06.932Z,7.51
2023-05-23T03:32:08.908Z,7.55
2023-05-23T03:33:12.287Z,7.58
2023-05-23T03:34:16.350Z,7.61
2023-05-23T03:35:19.179Z,7.64
2023-05-23T03:36:26.044Z,7.67
2023-05-23T03:37:27.961Z,7.68
2023-05-23T03:38:30.762Z,7.69
2023-05-23T03:39:32.631Z,7.70
2023-05-23T03:40:35.424Z,7.74
2023-05-23T03:41:37.286Z,7.79
2023-05-23T03:42:40.761Z,7.85
2023-05-23T03:43:44.537Z,7.90
2023-05-23T03:44:48.261Z,7.95
2023-05-23T03:45:50.295Z,8.01
2023-05-23T03:46:54.097Z,8.05
2023-05-23T03:47:56.024Z,8.07
2023-05-23T03:48:58.905Z,8.08
2023-05-23T03:50:03.008Z,8.11
2023-05-23T03:51:06.558Z,8.16
2023-05-23T03:52:08.480Z,8.18
2023-05-23T03:53:11.431Z,8.22
2023-05-23T03:54:13.262Z,8.26
2023-05-23T03:55:16.495Z,8.30
2023-05-23T03:56:18.939Z,8.34
2023-05-23T03:57:21.801Z,8.39
2023-05-23T03:58:25.369Z,8.46
2023-05-23T03:59:32.732Z,8.55
2023-05-23T04:00:35.160Z,8.67
2023-05-23T04:01:41.001Z,8.85
2023-05-23T04:02:43.916Z,9.04
2023-05-23T04:03:48.147Z,9.25
2023-05-23T04:04:51.740Z,9.45
2023-05-23T04:05:57.815Z,9.65
2023-05-23T04:06:59.706Z,9.84
2023-05-23T04:08:03.252Z,10.02
2023-05-23T04:09:06.654Z,10.18
2023-05-23T04:10:13.706Z,10.39
2023-05-23T04:11:16.956Z,10.61
2023-05-23T04:12:21.913Z,10.81
2023-05-23T04:13:42.878Z,11.11
2023-05-23T04:15:06.335Z,11.39
2023-05-23T04:16:33.216Z,11.65
2023-05-23T04:17:54.389Z,11.88
2023-05-23T04:19:16.411Z,12.06
2023-05-23T04:20:36.990Z,12.18
2023-05-23T04:22:00.926Z,12.36
2023-05-23T04:23:23.206Z,12.52
2023-05-23T04:24:47.322Z,12.67
2023-05-23T04:26:07.971Z,12.84
2023-05-23T04:27:34.620Z,13.04
2023-05-23T04:28:56.440Z,13.24
2023-05-23T04:30:18.298Z,13.41
2023-05-23T04:31:40.060Z,13.62
2023-05-23T04:33:00.405Z,13.83
2023-05-23T04:34:23.438Z,14.05
2023-05-23T04:35:44.105Z,14.24
2023-05-23T04:37:07.466Z,14.39
2023-05-23T04:38:28.989Z,14.56
2023-05-23T04:39:51.038Z,14.77
2023-05-23T04:41:23.594Z,14.96
2023-05-23T04:43:05.774Z,15.14
2023-05-23T04:44:32.148Z,15.31
2023-05-23T04:46:10.099Z,15.50
2023-05-23T04:47:36.995Z,15.63
2023-05-23T04:49:02.230Z,15.77
2023-05-23T04:50:23.866Z,15.90
2023-05-23T04:51:45.762Z,16.05
2023-05-23T04:53:14.823Z,16.25
2023-05-23T04:54:37.407Z,16.41
2023-05-23T04:56:00.406Z,16.59
2023-05-23T04:57:22.093Z,16.68
2023-05-23T04:58:44.403Z,16.74
2023-05-23T05:00:10.344Z,16.72
2023-05-23T05:01:32.104Z,16.70
2023-05-23T05:02:55.352Z,16.67
2023-05-23T05:04:20.041Z,16.74
2023-05-23T05:05:41.563Z,16.81
2023-05-23T05:07:04.128Z,16.84
2023-05-23T05:08:26.938Z,16.92
2023-05-23T05:09:48.206Z,17.05
2023-05-23T05:11:10.072Z,17.15
2023-05-23T05:12:31.275Z,17.19
2023-05-23T05:13:51.671Z,17.23
2023-05-23T05:15:14.347Z,17.30
2023-05-23T05:16:37.782Z,17.46
2023-05-23T05:17:59.288Z,17.66
2023-05-23T05:19:21.737Z,17.85
2023-05-23T05:20:43.227Z,18.03
2023-05-23T05:22:04.970Z,18.22
2023-05-23T05:23:29.428Z,18.43
2023-05-23T05:24:51.924Z,18.56
2023-05-23T05:26:13.461Z,18.64
2023-05-23T05:27:15.378Z,18.68
2023-05-23T05:28:18.216Z,18.77
2023-05-23T05:29:24.455Z,18.90
2023-05-23T05:30:28.019Z,19.06
2023-05-23T05:31:33.622Z,19.27
2023-05-23T05:32:36.646Z,19.43
2023-05-23T05:33:38.590Z,19.49
2023-05-23T05:34:49.321Z,19.59
2023-05-23T05:35:53.448Z,19.70
2023-05-23T05:36:56.446Z,19.75
2023-05-23T05:38:01.206Z,19.84
2023-05-23T05:39:06.924Z,19.92
2023-05-23T05:40:09.901Z,20.00
2023-05-23T05:41:17.700Z,20.02
2023-05-23T05:42:23.470Z,20.05
2023-05-23T05:43:27.204Z,20.12
2023-05-23T05:44:29.165Z,20.19
2023-05-23T05:45:31.944Z,20.23
2023-05-23T05:46:53.578Z,20.28
2023-05-23T05:48:15.086Z,20.33
2023-05-23T05:49:37.742Z,20.43
2023-05-23T05:51:01.067Z,20.51
2023-05-23T05:52:26.141Z,20.59
2023-05-23T05:53:47.356Z,20.69
2023-05-23T05:55:12.330Z,20.79
2023-05-23T05:56:36.859Z,20.82
2023-05-23T05:57:58.842Z,20.88
2023-05-23T05:59:22.321Z,21.01
2023-05-23T06:00:43.821Z,21.21
2023-05-23T06:02:05.496Z,21.39
2023-05-23T06:03:27.413Z,21.52
2023-05-23T06:04:49.981Z,21.60
2023-05-23T06:06:10.541Z,21.70
2023-05-23T06:07:15.177Z,21.78
2023-05-23T06:08:16.981Z,21.85
2023-05-23T06:09:19.893Z,21.94
2023-05-23T06:10:24.575Z,22.05
2023-05-23T06:11:27.891Z,22.16
2023-05-23T06:12:29.761Z,22.23
2023-05-23T06:13:32.546Z,22.29
2023-05-23T06:14:34.373Z,22.36
2023-05-23T06:15:38.168Z,22.38
2023-05-23T06:16:40.072Z,22.46
2023-05-23T06:17:44.809Z,22.54
2023-05-23T06:18:47.822Z,22.69
2023-05-23T06:19:50.119Z,22.88
2023-05-23T06:20:52.971Z,23.12
2023-05-23T06:21:56.588Z,23.26
2023-05-23T06:23:01.776Z,23.32
2023-05-23T06:24:03.633Z,23.27
2023-05-23T06:25:08.231Z,23.25
2023-05-23T06:26:30.869Z,23.24
2023-05-23T06:27:52.031Z,23.25
2023-05-23T06:29:14.143Z,23.32
2023-05-23T06:30:37.506Z,23.43
2023-05-23T06:31:59.021Z,23.59
2023-05-23T06:33:21.175Z,23.68
2023-05-23T06:34:43.492Z,23.76
2023-05-23T06:36:05.442Z,23.93
2023-05-23T06:37:26.685Z,24.09
2023-05-23T06:38:48.795Z,24.15
2023-05-23T06:40:10.902Z,24.27
2023-05-23T06:41:33.682Z,24.48
2023-05-23T06:42:48.647Z,24.66
2023-05-23T06:43:59.430Z,24.69
2023-05-23T06:45:06.571Z,24.76
2023-05-23T06:46:09.457Z,24.79
2023-05-23T06:47:11.290Z,24.82
2023-05-23T06:48:14.120Z,24.87
2023-05-23T06:49:16.457Z,24.97
2023-05-23T06:50:21.030Z,25.01
2023-05-23T06:51:25.098Z,25.03
2023-05-23T06:52:27.010Z,25.01
2023-05-23T06:53:29.964Z,25.02
2023-05-23T06:54:31.775Z,25.01
2023-05-23T06:55:34.962Z,25.01
2023-05-23T06:56:38.370Z,25.03
2023-05-23T06:57:41.469Z,25.10
2023-05-23T06:58:46.518Z,25.23
2023-05-23T06:59:50.019Z,25.31
2023-05-23T07:00:52.145Z,25.37
2023-05-23T07:02:03.627Z,25.39
2023-05-23T07:03:07.098Z,25.37
2023-05-23T07:04:12.047Z,25.33
2023-05-23T07:05:14.431Z,25.30
2023-05-23T07:06:22.549Z,25.41
2023-05-23T07:07:25.820Z,25.48
2023-05-23T07:08:32.076Z,25.59
2023-05-23T07:09:35.617Z,25.74
2023-05-23T07:10:46.167Z,25.84
2023-05-23T07:12:19.302Z,26.02
2023-05-23T07:13:23.766Z,26.20
2023-05-23T07:14:25.663Z,26.41
2023-05-23T07:15:28.759Z,26.66
2023-05-23T07:16:41.481Z,26.87
2023-05-23T07:17:44.819Z,26.98
2023-05-23T07:18:47.999Z,27.15
2023-05-23T07:19:50.095Z,27.33
2023-05-23T07:20:53.539Z,27.43
2023-05-23T07:21:57.333Z,27.64
2023-05-23T07:22:59.238Z,27.78
2023-05-23T07:24:02.328Z,27.79
2023-05-23T07:25:06.118Z,27.84
2023-05-23T07:26:11.612Z,27.83
2023-05-23T07:27:22.002Z,27.91
2023-05-23T07:28:24.839Z,28.01
2023-05-23T07:29:28.744Z,28.15
2023-05-23T07:30:33.353Z,28.26
2023-05-23T07:31:35.737Z,28.35
2023-05-23T07:32:38.940Z,28.44
2023-05-23T07:33:43.478Z,28.53
2023-05-23T07:34:49.633Z,28.58
2023-05-23T07:35:52.838Z,28.54
2023-05-23T07:36:54.883Z,28.58
2023-05-23T07:37:59.941Z,28.59
2023-05-23T07:39:03.204Z,28.63
2023-05-23T07:40:07.926Z,28.78
2023-05-23T07:41:11.893Z,28.97
2023-05-23T07:42:15.946Z,29.17
2023-05-23T07:43:20.325Z,29.34
2023-05-23T07:44:24.831Z,29.40
2023-05-23T07:45:28.521Z,29.46
2023-05-23T07:46:31.166Z,29.58
2023-05-23T07:47:34.117Z,29.58
2023-05-23T07:48:36.102Z,29.65
2023-05-23T07:49:40.072Z,29.69
2023-05-23T07:50:42.172Z,29.81
2023-05-23T07:51:45.052Z,29.99
2023-05-23T07:52:46.940Z,29.96
2023-05-23T07:53:52.484Z,29.91
2023-05-23T07:54:58.248Z,29.98
2023-05-23T07:56:02.261Z,30.06
2023-05-23T07:57:09.604Z,30.06
2023-05-23T07:58:11.692Z,30.01
2023-05-23T07:59:15.877Z,29.97
2023-05-23T08:00:20.538Z,29.90
2023-05-23T08:01:29.452Z,29.90
2023-05-23T08:02:37.413Z,29.95
2023-05-23T08:03:39.437Z,30.02
2023-05-23T08:04:49.983Z,30.17
2023-05-23T08:05:52.018Z,30.19
2023-05-23T08:07:04.317Z,30.25
2023-05-23T08:08:18.524Z,30.22
2023-05-23T08:09:21.026Z,30.31
2023-05-23T08:10:28.342Z,30.32
2023-05-23T08:11:34.455Z,30.37
2023-05-23T08:12:37.344Z,30.33
2023-05-23T08:13:48.231Z,30.20
2023-05-23T08:15:12.748Z,29.92
2023-05-23T08:16:27.924Z,29.85
2023-05-23T08:17:29.948Z,29.83
2023-05-23T08:18:33.823Z,29.74
2023-05-23T08:19:36.711Z,29.61
2023-05-23T08:20:38.975Z,29.63
2023-05-23T08:21:42.497Z,29.63
2023-05-23T08:22:45.822Z,29.69
2023-05-23T08:23:49.106Z,29.73
2023-05-23T08:24:51.927Z,29.78
2023-05-23T08:25:54.968Z,29.81
2023-05-23T08:26:57.899Z,29.84
2023-05-23T08:28:01.371Z,29.87
2023-05-23T08:29:18.878Z,29.99
2023-05-23T08:30:25.364Z,30.12
2023-05-23T08:31:27.682Z,30.20
2023-05-23T08:32:30.701Z,30.17
2023-05-23T08:33:33.677Z,30.33
2023-05-23T08:34:36.543Z,30.50
2023-05-23T08:35:58.071Z,30.79
2023-05-23T08:37:19.666Z,31.12
2023-05-23T08:38:41.299Z,31.18
2023-05-23T08:40:20.645Z,31.29
2023-05-23T08:41:50.418Z,31.43
2023-05-23T08:43:12.422Z,31.40
2023-05-23T08:44:33.781Z,31.47
2023-05-23T08:45:58.541Z,31.39
2023-05-23T08:47:22.001Z,31.26
2023-05-23T08:48:52.620Z,31.06
2023-05-23T08:50:16.061Z,30.98
2023-05-23T08:51:20.515Z,30.99
2023-05-23T08:52:27.045Z,30.93
2023-05-23T08:53:32.199Z,30.73
2023-05-23T08:54:41.195Z,30.40
2023-05-23T08:55:43.285Z,30.06
2023-05-23T08:56:47.647Z,29.97
2023-05-23T08:57:49.699Z,29.89
2023-05-23T08:59:04.183Z,29.55
2023-05-23T09:00:14.914Z,29.35
2023-05-23T09:01:20.547Z,29.34
2023-05-23T09:02:27.309Z,29.50
2023-05-23T09:03:39.890Z,29.73
2023-05-23T09:04:53.481Z,29.86
2023-05-23T09:05:58.845Z,29.99
2023-05-23T09:07:02.296Z,30.06
2023-05-23T09:08:06.134Z,30.25
2023-05-23T09:09:09.433Z,30.36
2023-05-23T09:10:12.451Z,30.43
2023-05-23T09:11:15.853Z,30.53
2023-05-23T09:12:22.419Z,30.67
2023-05-23T09:13:25.832Z,30.69
2023-05-23T09:14:31.727Z,30.74
2023-05-23T09:16:03.882Z,30.67
2023-05-23T09:17:19.546Z,30.72
2023-05-23T09:18:23.134Z,30.76
2023-05-23T09:19:24.984Z,30.86
2023-05-23T09:20:34.885Z,31.02
2023-05-23T09:21:45.104Z,31.21
2023-05-23T09:22:53.237Z,31.33
2023-05-23T09:23:55.985Z,31.25
2023-05-23T09:24:59.276Z,31.13
2023-05-23T09:26:03.332Z,31.06
2023-05-23T09:27:08.023Z,31.04
2023-05-23T09:28:15.056Z,31.00
2023-05-23T09:29:39.530Z,31.03
2023-05-23T09:30:42.546Z,31.05
2023-05-23T09:31:44.463Z,31.18
2023-05-23T09:33:03.936Z,31.44
2023-05-23T09:34:10.852Z,31.56
2023-05-23T09:35:14.510Z,31.54
2023-05-23T09:36:18.402Z,31.55
2023-05-23T09:37:20.260Z,31.52
2023-05-23T09:38:23.180Z,31.43
2023-05-23T09:39:27.129Z,31.42
2023-05-23T09:40:32.970Z,31.49
2023-05-23T09:41:37.267Z,31.44
2023-05-23T09:42:42.159Z,31.27
2023-05-23T09:43:51.204Z,31.20
2023-05-23T09:44:54.002Z,31.25
2023-05-23T09:45:57.012Z,31.34
2023-05-23T09:47:00.529Z,31.45
2023-05-23T09:48:04.075Z,31.54
2023-05-23T09:49:17.850Z,31.56
2023-05-23T09:50:21.568Z,31.52
2023-05-23T09:51:25.038Z,31.44
2023-05-23T09:52:26.988Z,31.54
2023-05-23T09:53:29.947Z,31.75
2023-05-23T09:54:32.757Z,31.96
2023-05-23T09:55:34.608Z,31.97
2023-05-23T09:56:41.694Z,31.96
2023-05-23T09:57:45.801Z,32.01
2023-05-23T09:58:50.065Z,32.06
2023-05-23T09:59:54.683Z,32.04
2023-05-23T10:00:58.185Z,32.03
2023-05-23T10:02:02.272Z,32.11
2023-05-23T10:03:11.487Z,32.20
2023-05-23T10:04:16.060Z,32.23
2023-05-23T10:05:29.299Z,32.23
2023-05-23T10:06:43.900Z,32.23
2023-05-23T10:07:46.254Z,32.23
2023-05-23T10:08:53.922Z,32.29
2023-05-23T10:10:01.313Z,32.31
2023-05-23T10:11:51.840Z,32.32
2023-05-23T10:12:56.974Z,32.37
2023-05-23T10:13:59.712Z,32.48
2023-05-23T10:15:04.120Z,32.64
2023-05-23T10:16:13.433Z,32.76
2023-05-23T10:17:20.591Z,32.87
2023-05-23T10:18:27.910Z,33.00
2023-05-23T10:19:35.579Z,33.05
2023-05-23T10:20:41.187Z,33.10
2023-05-23T10:21:46.486Z,33.23
2023-05-23T10:22:49.902Z,33.38
2023-05-23T10:23:51.991Z,33.42
2023-05-23T10:24:54.972Z,33.33
2023-05-23T10:25:57.851Z,33.39
2023-05-23T10:26:59.968Z,33.56
2023-05-23T10:28:04.307Z,33.67
2023-05-23T10:29:07.047Z,33.76
2023-05-23T10:30:11.296Z,33.80
2023-05-23T10:31:13.230Z,33.80
2023-05-23T10:32:16.951Z,33.82
2023-05-23T10:33:20.352Z,33.82
2023-05-23T10:34:28.406Z,33.60
2023-05-23T10:35:44.050Z,33.22
2023-05-23T10:36:55.783Z,32.72
2023-05-23T10:38:03.106Z,32.23
2023-05-23T10:39:10.240Z,31.85
2023-05-23T10:40:18.175Z,31.57
2023-05-23T10:41:24.050Z,31.38
2023-05-23T10:42:35.472Z,31.37
2023-05-23T10:43:44.110Z,31.36
2023-05-23T10:44:46.944Z,31.24
2023-05-23T10:45:50.672Z,31.03
2023-05-23T10:46:54.881Z,30.80
2023-05-23T10:47:57.900Z,30.54
2023-05-23T10:49:01.426Z,30.42
2023-05-23T10:50:05.398Z,30.33
2023-05-23T10:51:08.857Z,30.41
2023-05-23T10:52:12.369Z,30.46
2023-05-23T10:53:17.809Z,30.61
2023-05-23T10:54:20.247Z,30.67
2023-05-23T10:55:23.304Z,30.59
2023-05-23T10:56:25.862Z,30.52
2023-05-23T10:57:28.902Z,30.53
2023-05-23T10:58:31.954Z,30.58
2023-05-23T10:59:35.275Z,30.57
2023-05-23T11:00:37.201Z,30.37
2023-05-23T11:01:42.916Z,30.19
2023-05-23T11:02:55.479Z,30.07
2023-05-23T11:03:58.730Z,29.99
2023-05-23T11:05:22.195Z,29.86
2023-05-23T11:06:32.020Z,29.74
2023-05-23T11:07:34.867Z,29.66
2023-05-23T11:08:46.972Z,29.61
2023-05-23T11:10:10.924Z,29.78
2023-05-23T11:11:13.824Z,29.79
2023-05-23T11:12:16.602Z,29.80
2023-05-23T11:13:19.101Z,29.86
2023-05-23T11:14:32.136Z,29.92
2023-05-23T11:15:45.057Z,29.91
2023-05-23T11:16:49.167Z,30.06
2023-05-23T11:17:53.758Z,30.35
2023-05-23T11:19:25.980Z,30.59
2023-05-23T11:20:31.662Z,30.74
2023-05-23T11:21:33.583Z,30.94
2023-05-23T11:22:36.989Z,31.11
2023-05-23T11:23:42.873Z,31.22
2023-05-23T11:24:50.023Z,31.25
2023-05-23T11:25:53.964Z,31.04
2023-05-23T11:27:00.457Z,30.92
2023-05-23T11:28:05.466Z,30.97
2023-05-23T11:29:09.394Z,30.99
2023-05-23T11:30:14.671Z,31.09
2023-05-23T11:31:17.737Z,31.18
2023-05-23T11:32:19.794Z,31.35
2023-05-23T11:33:22.727Z,31.57
2023-05-23T11:34:25.931Z,31.77
2023-05-23T11:35:31.638Z,32.03
2023-05-23T11:36:33.837Z,32.15
2023-05-23T11:37:37.189Z,32.20
2023-05-23T11:38:39.006Z,32.31
2023-05-23T11:39:41.876Z,32.48
2023-05-23T11:40:45.680Z,32.58
2023-05-23T11:41:55.243Z,32.66
2023-05-23T11:42:58.598Z,32.69
2023-05-23T11:44:01.591Z,32.50
2023-05-23T11:45:04.946Z,32.28
2023-05-23T11:46:10.838Z,32.14
2023-05-23T11:47:12.728Z,32.02
2023-05-23T11:48:16.708Z,31.87
2023-05-23T11:49:18.656Z,31.74
2023-05-23T11:50:21.517Z,31.54
2023-05-23T11:51:24.715Z,31.35
2023-05-23T11:52:33.488Z,31.40
2023-05-23T11:53:36.393Z,31.56
2023-05-23T11:54:40.586Z,31.72
2023-05-23T11:55:49.832Z,31.96
2023-05-23T11:56:51.787Z,32.09
2023-05-23T11:57:57.188Z,32.21
2023-05-23T11:58:59.110Z,32.37
2023-05-23T12:00:01.862Z,32.41
2023-05-23T12:01:06.486Z,32.48
2023-05-23T12:02:29.416Z,32.75
2023-05-23T12:03:52.589Z,32.87
2023-05-23T12:05:15.550Z,33.08
2023-05-23T12:06:40.353Z,33.26
2023-05-23T12:08:02.111Z,33.57
2023-05-23T12:09:22.740Z,33.91
2023-05-23T12:10:51.342Z,34.16
2023-05-23T12:12:13.731Z,34.31
2023-05-23T12:13:34.978Z,34.55
2023-05-23T12:14:57.421Z,34.81
2023-05-23T12:16:18.745Z,34.89
2023-05-23T12:17:40.742Z,34.86
2023-05-23T12:19:03.301Z,34.64
2023-05-23T12:20:25.279Z,34.57
2023-05-23T12:21:49.013Z,34.48
2023-05-23T12:22:50.890Z,34.29
2023-05-23T12:23:53.807Z,34.14
2023-05-23T12:24:57.008Z,34.00
2023-05-23T12:25:58.871Z,33.91
2023-05-23T12:27:03.522Z,33.81
2023-05-23T12:28:06.022Z,33.69
2023-05-23T12:29:08.802Z,33.44
2023-05-23T12:30:12.882Z,33.16
2023-05-23T12:31:19.155Z,33.03
2023-05-23T12:32:24.897Z,32.87
2023-05-23T12:33:27.708Z,32.73
2023-05-23T12:34:30.939Z,32.69
2023-05-23T12:35:32.857Z,32.72
2023-05-23T12:36:47.949Z,32.80
2023-05-23T12:37:54.795Z,32.88
2023-05-23T12:39:02.454Z,32.85
2023-05-23T12:40:15.927Z,32.56
2023-05-23T12:41:19.924Z,32.27
2023-05-23T12:42:22.955Z,32.09
2023-05-23T12:43:24.752Z,31.95
2023-05-23T12:44:47.117Z,31.81
2023-05-23T12:46:09.340Z,31.70
2023-05-23T12:47:13.225Z,31.71
2023-05-23T12:48:16.803Z,31.69
2023-05-23T12:49:19.960Z,31.60
2023-05-23T12:50:22.929Z,31.57
2023-05-23T12:51:24.725Z,31.51
2023-05-23T12:52:27.550Z,31.37
2023-05-23T12:53:32.275Z,31.21
2023-05-23T12:54:34.115Z,31.06
2023-05-23T12:55:36.930Z,30.88
2023-05-23T12:56:38.827Z,30.70
2023-05-23T12:57:41.594Z,30.51
2023-05-23T12:58:43.845Z,30.28
2023-05-23T12:59:50.412Z,30.09
2023-05-23T13:00:52.377Z,29.95
2023-05-23T13:01:55.897Z,29.81
2023-05-23T13:02:58.749Z,29.61
2023-05-23T13:04:04.602Z,29.43
2023-05-23T13:05:26.815Z,29.09
2023-05-23T13:06:48.114Z,28.35
2023-05-23T13:08:09.771Z,27.59
2023-05-23T13:09:12.948Z,27.02
2023-05-23T13:10:16.077Z,26.50
2023-05-23T13:11:19.005Z,25.96
2023-05-23T13:12:21.074Z,25.44
2023-05-23T13:13:24.208Z,25.02
2023-05-23T13:14:27.657Z,24.64
2023-05-23T13:15:29.539Z,24.29
2023-05-23T13:16:33.062Z,24.02
2023-05-23T13:17:35.114Z,23.81
2023-05-23T13:18:37.951Z,23.63
2023-05-23T13:19:39.804Z,23.49
2023-05-23T13:20:42.620Z,23.35
2023-05-23T13:21:46.661Z,23.17
2023-05-23T13:22:54.240Z,22.96
2023-05-23T13:23:56.994Z,22.76
2023-05-23T13:25:00.246Z,22.59
2023-05-23T13:26:03.090Z,22.39
2023-05-23T13:27:05.401Z,22.23
2023-05-23T13:28:08.420Z,22.10
2023-05-23T13:29:11.252Z,22.03
2023-05-23T13:30:13.266Z,21.97
2023-05-23T13:31:16.574Z,21.92
2023-05-23T13:32:18.698Z,21.90
2023-05-23T13:33:23.077Z,21.90
2023-05-23T13:34:25.254Z,21.90
2023-05-23T13:35:28.054Z,21.84
2023-05-23T13:36:29.891Z,21.79
2023-05-23T13:37:32.821Z,21.73
2023-05-23T13:38:36.186Z,21.61
2023-05-23T13:39:38.022Z,21.52
2023-05-23T13:40:42.361Z,21.37
2023-05-23T13:41:45.595Z,21.19
2023-05-23T13:42:50.821Z,21.09
2023-05-23T13:43:53.761Z,20.97
2023-05-23T13:44:55.747Z,20.84
2023-05-23T13:45:58.591Z,20.74
2023-05-23T13:47:12.633Z,20.57
2023-05-23T13:48:16.029Z,20.33
2023-05-23T13:49:17.874Z,20.15
2023-05-23T13:50:39.283Z,19.90
2023-05-23T13:52:00.767Z,19.67
2023-05-23T13:53:22.153Z,19.51
2023-05-23T13:54:46.280Z,19.30
2023-05-23T13:56:09.520Z,19.08
2023-05-23T13:57:30.784Z,18.80
2023-05-23T13:58:52.149Z,18.51
2023-05-23T13:59:54.092Z,18.32
2023-05-23T14:00:56.963Z,18.17
2023-05-23T14:01:58.866Z,18.04
2023-05-23T14:03:01.719Z,17.94
2023-05-23T14:04:04.811Z,17.89
2023-05-23T14:05:10.489Z,17.87
2023-05-23T14:06:13.057Z,17.81
2023-05-23T14:07:16.971Z,17.78
2023-05-23T14:08:20.020Z,17.77
2023-05-23T14:09:23.449Z,17.78
2023-05-23T14:10:26.342Z,17.81
2023-05-23T14:11:29.664Z,17.85
2023-05-23T14:12:32.483Z,17.86
2023-05-23T14:13:34.282Z,17.90
2023-05-23T14:14:37.091Z,17.94
2023-05-23T14:15:58.469Z,17.94
2023-05-23T14:17:00.292Z,17.94
2023-05-23T14:18:03.176Z,17.87
2023-05-23T14:19:05.048Z,17.81
2023-05-23T14:20:09.102Z,17.78
2023-05-23T14:21:10.963Z,17.80
2023-05-23T14:22:16.101Z,17.86
2023-05-23T14:23:19.949Z,17.93
2023-05-23T14:24:23.541Z,18.03
2023-05-23T14:25:25.498Z,18.13
2023-05-23T14:26:28.246Z,18.24
2023-05-23T14:27:33.538Z,18.37
2023-05-23T14:28:35.486Z,18.49
2023-05-23T14:29:38.354Z,18.60
2023-05-23T14:30:41.230Z,18.69
2023-05-23T14:31:43.450Z,18.78
2023-05-23T14:32:48.656Z,18.85
2023-05-23T14:33:51.446Z,18.92
2023-05-23T14:34:57.146Z,18.97
2023-05-23T14:35:59.075Z,19.00
2023-05-23T14:37:01.919Z,19.03
2023-05-23T14:38:04.824Z,19.11
2023-05-23T14:39:09.084Z,19.17
2023-05-23T14:40:16.294Z,19.25
2023-05-23T14:41:18.678Z,19.34
2023-05-23T14:42:21.538Z,19.44
2023-05-23T14:43:26.419Z,19.53
2023-05-23T14:44:29.245Z,19.58
2023-05-23T14:45:31.660Z,19.61
2023-05-23T14:46:35.159Z,19.62
2023-05-23T14:47:37.810Z,19.62
2023-05-23T14:48:41.709Z,19.64
2023-05-23T14:49:43.527Z,19.62
2023-05-23T14:50:46.387Z,19.64
2023-05-23T14:51:51.654Z,19.69
2023-05-23T14:52:55.551Z,19.71
2023-05-23T14:53:57.466Z,19.78
2023-05-23T14:55:19.057Z,19.86
2023-05-23T14:56:41.154Z,19.93